Time;durP1;ratioP1;P1;durP2;ratioP2;P2;SDS_P1;SDS_P2;PMS_P1;PMS_P2;Temp;Humidity;BMP_temperature;BMP_pressure;BME280_temperature;BME280_humidity;BME280_pressure;Samples;Min_cycle;Max_cycle;Signal;HPM_P1;HPM_P2
2022/05/29 00:02:05;;;;;;;9.43;5.28;;;11.40;99.90;;;;;;5049057;28;20228;-73
2022/05/29 00:04:54;;;;;;;9.88;4.90;;;11.40;99.90;;;;;;5056086;28;20208;-74
2022/05/29 00:07:47;;;;;;;11.60;5.07;;;11.50;99.90;;;;;;5074490;28;20591;-73
2022/05/29 00:10:39;;;;;;;9.23;4.88;;;11.40;99.90;;;;;;5048999;28;20302;-73
2022/05/29 00:13:29;;;;;;;9.70;5.05;;;11.40;99.90;;;;;;5047817;28;20220;-73
2022/05/29 00:16:18;;;;;;;10.40;5.35;;;11.40;99.90;;;;;;5060637;28;20639;-73
2022/05/29 00:19:09;;;;;;;7.97;4.47;;;11.40;99.90;;;;;;5070722;28;20306;-73
2022/05/29 00:21:58;;;;;;;7.60;4.68;;;11.30;99.90;;;;;;5058450;28;20227;-72
2022/05/29 00:24:48;;;;;;;9.68;4.65;;;11.30;99.90;;;;;;5064324;28;20212;-74
2022/05/29 00:27:37;;;;;;;5.68;4.60;;;11.40;99.90;;;;;;5052247;28;20251;-73
2022/05/29 00:30:26;;;;;;;6.85;4.22;;;11.30;99.90;;;;;;5048023;28;20224;-72
2022/05/29 00:33:15;;;;;;;10.02;4.50;;;11.40;99.90;;;;;;5058075;28;20236;-72
2022/05/29 00:36:05;;;;;;;8.43;4.18;;;11.20;99.90;;;;;;5031624;28;20353;-74
2022/05/29 00:38:54;;;;;;;7.82;4.25;;;11.20;99.90;;;;;;5060732;28;20255;-72
2022/05/29 00:41:44;;;;;;;7.85;4.10;;;11.30;99.90;;;;;;5064541;28;20213;-72
2022/05/29 00:44:34;;;;;;;9.90;4.10;;;11.30;99.90;;;;;;5043303;28;20220;-71
2022/05/29 00:47:27;;;;;;;7.25;4.20;;;11.30;99.90;;;;;;5067326;28;20323;-73
2022/05/29 00:50:19;;;;;;;7.38;4.07;;;11.20;99.90;;;;;;5057845;28;20232;-71
2022/05/29 00:53:09;;;;;;;7.95;4.15;;;11.30;99.90;;;;;;5070708;28;20695;-72
2022/05/29 00:56:02;;;;;;;6.50;3.72;;;11.30;99.90;;;;;;5060479;28;20218;-72
2022/05/29 00:58:50;;;;;;;5.35;3.70;;;11.30;99.90;;;;;;5046432;28;20378;-70
2022/05/29 01:01:39;;;;;;;8.23;3.55;;;11.20;99.90;;;;;;5057913;28;20227;-72
2022/05/29 01:04:28;;;;;;;10.15;3.88;;;11.30;99.90;;;;;;5057749;28;20216;-73
2022/05/29 01:07:23;;;;;;;4.85;3.28;;;11.30;99.90;;;;;;5065767;28;20253;-73
2022/05/29 01:10:14;;;;;;;8.95;3.60;;;11.30;99.90;;;;;;5061243;28;20243;-74
2022/05/29 01:13:11;;;;;;;9.00;3.65;;;11.40;99.90;;;;;;5057481;28;20707;-73
2022/05/29 01:16:08;;;;;;;7.00;3.45;;;11.30;99.90;;;;;;5042206;28;20902;-72
2022/05/29 01:19:15;;;;;;;8.57;3.50;;;11.20;99.90;;;;;;5050569;28;20246;-72
2022/05/29 01:22:20;;;;;;;6.75;3.70;;;11.10;99.90;;;;;;5041302;28;20298;-72
2022/05/29 01:25:56;;;;;;;8.88;3.90;;;11.20;99.90;;;;;;5060988;28;20219;-72
2022/05/29 01:28:53;;;;;;;7.07;3.75;;;11.20;99.90;;;;;;5053690;28;20273;-73
2022/05/29 01:31:50;;;;;;;6.45;3.55;;;11.20;99.90;;;;;;5055488;28;20703;-72
2022/05/29 01:34:46;;;;;;;9.13;3.58;;;11.20;99.90;;;;;;5038290;28;20216;-72
2022/05/29 01:37:42;;;;;;;6.35;3.50;;;11.30;99.90;;;;;;5051206;28;20366;-73
2022/05/29 01:40:37;;;;;;;8.32;3.50;;;11.30;99.90;;;;;;5058595;28;20839;-72
2022/05/29 01:43:34;;;;;;;7.95;3.30;;;11.30;99.90;;;;;;5058829;28;20227;-72
2022/05/29 01:46:30;;;;;;;6.35;3.67;;;11.30;99.90;;;;;;5042026;28;20215;-72
2022/05/29 01:49:25;;;;;;;4.97;3.30;;;11.30;99.90;;;;;;5050049;28;20267;-72
2022/05/29 01:52:17;;;;;;;7.38;3.30;;;11.30;99.90;;;;;;5064653;28;20243;-72
2022/05/29 01:55:09;;;;;;;6.97;3.72;;;11.20;99.90;;;;;;5053163;28;20216;-72
2022/05/29 01:58:03;;;;;;;6.18;3.55;;;11.30;99.90;;;;;;5052444;28;20765;-72
2022/05/29 02:00:56;;;;;;;7.03;3.20;;;11.20;99.90;;;;;;5061074;28;20252;-74
2022/05/29 02:03:49;;;;;;;6.50;3.20;;;11.20;99.90;;;;;;5041715;28;20498;-72
2022/05/29 02:09:55;;;;;;;5.50;3.35;;;11.30;99.90;;;;;;5054961;28;20220;-72
2022/05/29 02:12:49;;;;;;;8.70;3.50;;;11.30;99.90;;;;;;5055116;28;20223;-72
2022/05/29 02:15:42;;;;;;;7.93;3.20;;;11.30;99.90;;;;;;5061862;28;20310;-73
2022/05/29 02:18:39;;;;;;;5.28;3.28;;;11.30;99.90;;;;;;5056663;28;20221;-72
2022/05/29 02:21:36;;;;;;;6.60;3.53;;;11.30;99.90;;;;;;5072513;28;20231;-73
2022/05/29 02:24:30;;;;;;;6.10;3.70;;;11.40;99.90;;;;;;5056263;28;20224;-72
2022/05/29 02:27:34;;;;;;;6.30;3.53;;;11.30;99.90;;;;;;5060175;28;20555;-71
2022/05/29 02:30:25;;;;;;;11.80;3.70;;;11.40;99.90;;;;;;5057526;28;20906;-73
2022/05/29 02:33:19;;;;;;;7.05;3.78;;;11.20;99.90;;;;;;5047601;28;20678;-71
2022/05/29 02:36:23;;;;;;;6.28;3.40;;;11.20;99.90;;;;;;5057210;28;20326;-71
2022/05/29 02:39:29;;;;;;;6.40;3.30;;;11.20;99.90;;;;;;5055891;28;20429;-70
2022/05/29 02:42:26;;;;;;;9.10;3.45;;;11.30;99.90;;;;;;5040643;28;20228;-73
2022/05/29 02:45:21;;;;;;;7.93;3.20;;;11.40;99.90;;;;;;5047691;28;20228;-73
2022/05/29 02:48:20;;;;;;;9.57;3.72;;;11.30;99.90;;;;;;5052801;28;20228;-74
2022/05/29 02:51:17;;;;;;;9.15;3.70;;;11.30;99.90;;;;;;5050897;28;20619;-73
2022/05/29 02:54:11;;;;;;;7.95;3.83;;;11.20;99.90;;;;;;5061656;28;20239;-72
2022/05/29 02:57:02;;;;;;;6.32;3.45;;;11.10;99.90;;;;;;5040568;28;20238;-73
2022/05/29 02:59:57;;;;;;;10.15;3.50;;;11.10;99.90;;;;;;5039922;28;20555;-73
2022/05/29 03:03:02;;;;;;;10.55;3.72;;;11.20;99.90;;;;;;5069690;28;20220;-73
2022/05/29 03:06:01;;;;;;;6.18;3.17;;;11.30;99.90;;;;;;5049841;28;20349;-73
2022/05/29 03:09:03;;;;;;;8.35;3.90;;;11.30;99.90;;;;;;5062646;28;20216;-74
2022/05/29 03:11:52;;;;;;;9.60;3.70;;;11.30;99.90;;;;;;5043109;28;20227;-71
2022/05/29 03:14:53;;;;;;;10.60;4.00;;;11.40;99.90;;;;;;5046068;28;20227;-71
2022/05/29 03:17:46;;;;;;;8.25;3.53;;;11.40;99.90;;;;;;5059380;28;20228;-73
2022/05/29 03:20:44;;;;;;;7.85;3.47;;;11.40;99.90;;;;;;5046513;28;20739;-72
2022/05/29 03:23:42;;;;;;;7.20;3.60;;;11.50;99.90;;;;;;5050630;28;20208;-73
2022/05/29 03:26:41;;;;;;;7.35;3.58;;;11.50;99.90;;;;;;5059169;28;20287;-72
2022/05/29 03:29:38;;;;;;;7.95;3.67;;;11.50;99.90;;;;;;5053713;28;20230;-73
2022/05/29 03:32:29;;;;;;;6.88;3.38;;;11.40;99.90;;;;;;5055830;28;20227;-73
2022/05/29 03:35:24;;;;;;;11.32;4.20;;;11.40;99.90;;;;;;5054146;28;20311;-72
2022/05/29 03:38:13;;;;;;;8.95;4.28;;;11.50;99.90;;;;;;5065244;28;20224;-73
2022/05/29 03:41:13;;;;;;;11.85;4.05;;;11.50;99.90;;;;;;5036825;28;20300;-73
2022/05/29 03:44:03;;;;;;;13.55;4.07;;;11.50;99.90;;;;;;5055559;28;20233;-72
2022/05/29 03:46:51;;;;;;;8.70;3.83;;;11.50;99.90;;;;;;5046263;28;20209;-72
2022/05/29 03:49:41;;;;;;;8.23;3.50;;;11.60;99.90;;;;;;5058177;28;20691;-70
2022/05/29 03:52:31;;;;;;;7.10;3.50;;;11.60;99.90;;;;;;5071585;28;20299;-73
2022/05/29 03:55:22;;;;;;;6.45;3.50;;;11.70;99.90;;;;;;5037807;28;20232;-74
2022/05/29 03:58:11;;;;;;;8.05;3.75;;;11.70;99.90;;;;;;5046797;28;20239;-74
2022/05/29 04:01:00;;;;;;;10.00;3.85;;;11.80;99.90;;;;;;5054296;28;20422;-73
2022/05/29 04:03:49;;;;;;;9.80;3.70;;;11.80;99.90;;;;;;5048098;28;20438;-75
2022/05/29 04:06:40;;;;;;;6.70;3.42;;;11.80;99.90;;;;;;5051354;28;20208;-73
2022/05/29 04:12:36;;;;;;;11.40;3.65;;;11.50;99.90;;;;;;5071633;28;20267;-73
2022/05/29 04:15:25;;;;;;;10.00;3.60;;;11.70;99.90;;;;;;5034045;28;20224;-74
2022/05/29 04:18:14;;;;;;;11.18;3.80;;;11.70;99.90;;;;;;5053080;28;20232;-74
2022/05/29 04:21:03;;;;;;;7.10;3.45;;;11.70;99.90;;;;;;5077429;28;20224;-74
2022/05/29 04:23:53;;;;;;;10.02;3.78;;;11.80;99.90;;;;;;5062920;28;20230;-73
2022/05/29 04:26:42;;;;;;;8.18;3.38;;;11.80;99.90;;;;;;5050796;28;20216;-74
2022/05/29 04:29:32;;;;;;;12.25;3.95;;;11.80;99.90;;;;;;5052662;28;20314;-74
2022/05/29 04:35:27;;;;;;;6.53;3.50;;;11.80;99.90;;;;;;5051261;28;20223;-74
2022/05/29 04:38:17;;;;;;;8.82;3.75;;;11.70;99.90;;;;;;5049565;28;20251;-74
2022/05/29 04:41:09;;;;;;;7.85;3.33;;;11.80;99.90;;;;;;5046555;28;20314;-75
2022/05/29 04:43:58;;;;;;;7.72;3.42;;;11.80;99.90;;;;;;5046335;28;20220;-76
2022/05/29 04:46:47;;;;;;;6.18;3.42;;;11.80;99.90;;;;;;5045551;28;20253;-73
2022/05/29 04:49:37;;;;;;;8.05;4.20;;;11.80;99.90;;;;;;5047038;28;20235;-74
2022/05/29 04:52:26;;;;;;;9.10;3.95;;;11.80;99.90;;;;;;5049012;28;20221;-74
2022/05/29 04:55:14;;;;;;;11.70;3.75;;;11.90;99.90;;;;;;5051426;28;20368;-74
2022/05/29 04:58:04;;;;;;;7.88;3.78;;;11.90;99.90;;;;;;5045301;28;20586;-74
2022/05/29 05:00:56;;;;;;;7.65;4.15;;;12.00;99.90;;;;;;5069605;28;20357;-74
2022/05/29 05:03:45;;;;;;;11.00;3.92;;;11.90;99.90;;;;;;5067265;28;20568;-73
2022/05/29 05:06:34;;;;;;;10.63;3.95;;;12.00;99.90;;;;;;5046342;28;20879;-72
2022/05/29 05:09:23;;;;;;;10.23;4.53;;;12.10;99.90;;;;;;5048141;28;20285;-73
2022/05/29 05:12:12;;;;;;;11.73;4.68;;;12.00;99.90;;;;;;5069505;28;20220;-73
2022/05/29 05:15:02;;;;;;;9.35;4.57;;;12.00;99.90;;;;;;5049206;28;20231;-73
2022/05/29 05:17:51;;;;;;;10.20;3.97;;;12.00;99.90;;;;;;5063043;28;20220;-74
2022/05/29 05:20:40;;;;;;;10.65;4.80;;;12.20;99.90;;;;;;5060284;28;20251;-73
2022/05/29 05:23:29;;;;;;;14.88;4.63;;;12.20;99.90;;;;;;5046781;28;20220;-72
2022/05/29 05:26:19;;;;;;;13.00;5.13;;;12.30;99.90;;;;;;5072437;28;20227;-72
2022/05/29 05:29:07;;;;;;;9.48;4.75;;;12.40;99.90;;;;;;5062770;28;20228;-73
2022/05/29 05:31:58;;;;;;;11.77;5.00;;;12.50;99.90;;;;;;5075006;28;20223;-73
2022/05/29 05:34:47;;;;;;;7.95;4.65;;;12.50;99.90;;;;;;5070860;28;20228;-74
2022/05/29 05:37:37;;;;;;;8.38;4.10;;;12.60;99.90;;;;;;5055636;28;20599;-73
2022/05/29 05:40:26;;;;;;;7.00;4.40;;;12.50;99.90;;;;;;5061536;28;20656;-73
2022/05/29 05:43:15;;;;;;;13.35;4.65;;;12.50;99.90;;;;;;5049754;28;20635;-73
2022/05/29 05:46:07;;;;;;;11.02;5.47;;;12.60;99.90;;;;;;5062550;28;20422;-73
2022/05/29 05:48:57;;;;;;;11.57;5.43;;;12.50;99.90;;;;;;5052711;28;20225;-74
2022/05/29 05:51:50;;;;;;;14.57;5.95;;;12.60;99.90;;;;;;5069346;28;20217;-73
2022/05/29 05:54:39;;;;;;;13.05;6.30;;;12.70;99.90;;;;;;5058622;28;20219;-74
2022/05/29 05:57:27;;;;;;;19.27;6.65;;;12.80;99.90;;;;;;5053102;28;20219;-74
2022/05/29 06:00:18;;;;;;;18.00;6.90;;;12.80;99.90;;;;;;5051727;28;20224;-74
2022/05/29 06:03:07;;;;;;;11.02;6.60;;;12.80;99.90;;;;;;5044133;28;20384;-74
2022/05/29 06:05:58;;;;;;;8.57;6.47;;;12.70;99.90;;;;;;5050086;28;20223;-74
2022/05/29 06:08:46;;;;;;;13.75;6.35;;;12.90;99.90;;;;;;5047951;28;20726;-74
2022/05/29 06:11:39;;;;;;;11.48;6.20;;;12.90;99.90;;;;;;5052800;28;20219;-74
2022/05/29 06:14:28;;;;;;;13.45;6.80;;;12.70;99.90;;;;;;5034138;28;20571;-73
2022/05/29 06:17:17;;;;;;;10.98;7.63;;;12.90;99.90;;;;;;5059535;28;20377;-74
2022/05/29 06:20:07;;;;;;;13.85;6.80;;;12.90;99.90;;;;;;5074672;28;20216;-73
2022/05/29 06:22:57;;;;;;;16.65;7.07;;;13.00;99.90;;;;;;5046652;28;20222;-72
2022/05/29 06:25:45;;;;;;;12.27;6.63;;;13.20;99.90;;;;;;5046807;28;20242;-73
2022/05/29 06:28:35;;;;;;;12.18;6.38;;;13.00;99.90;;;;;;5044700;28;20262;-74
2022/05/29 06:31:24;;;;;;;16.17;6.65;;;13.30;99.90;;;;;;5060233;28;20224;-72
2022/05/29 06:34:13;;;;;;;11.35;5.90;;;13.40;99.90;;;;;;5051233;28;20592;-75
2022/05/29 06:37:04;;;;;;;13.55;6.13;;;13.50;99.90;;;;;;5060441;28;20311;-72
2022/05/29 06:39:54;;;;;;;14.98;5.88;;;13.40;99.90;;;;;;5046997;28;20225;-72
2022/05/29 06:42:43;;;;;;;10.43;5.50;;;13.70;99.90;;;;;;5070424;28;20223;-75
2022/05/29 06:45:32;;;;;;;10.27;5.18;;;13.80;99.90;;;;;;5043401;28;20224;-71
2022/05/29 06:48:21;;;;;;;9.88;5.30;;;13.80;99.90;;;;;;5047963;28;20230;-73
2022/05/29 06:51:13;;;;;;;11.38;6.22;;;13.80;99.90;;;;;;5063745;28;20579;-73
2022/05/29 06:54:04;;;;;;;7.43;4.63;;;13.90;99.90;;;;;;5061288;28;20263;-73
2022/05/29 06:56:54;;;;;;;10.48;4.85;;;14.20;99.90;;;;;;5053662;28;20322;-74
2022/05/29 07:09:06;;;;;;;11.32;4.05;;;14.90;99.90;;;;;;5058993;28;20362;-73
2022/05/29 07:12:01;;;;;;;7.68;3.70;;;14.90;99.90;;;;;;5049212;28;20703;-74
2022/05/29 07:14:52;;;;;;;9.18;4.35;;;15.00;99.90;;;;;;5071019;28;20302;-75
2022/05/29 07:17:41;;;;;;;9.82;3.70;;;15.20;99.90;;;;;;5064092;28;20246;-74
2022/05/29 07:20:30;;;;;;;10.85;3.60;;;15.40;99.90;;;;;;5064547;28;20315;-74
2022/05/29 07:23:19;;;;;;;8.80;3.55;;;15.40;99.90;;;;;;5069443;28;20217;-73
2022/05/29 07:26:08;;;;;;;13.43;3.95;;;15.10;99.90;;;;;;5051413;28;20235;-74
2022/05/29 07:28:58;;;;;;;10.05;4.25;;;15.20;99.90;;;;;;5052713;28;20232;-74
2022/05/29 07:31:47;;;;;;;10.10;3.92;;;15.20;99.90;;;;;;5065384;28;20316;-76
2022/05/29 07:34:43;;;;;;;10.15;3.60;;;15.90;99.90;;;;;;5060409;28;20227;-76
2022/05/29 07:37:32;;;;;;;8.68;3.55;;;16.40;99.90;;;;;;5048668;28;20242;-74
2022/05/29 07:40:21;;;;;;;8.85;3.38;;;17.00;99.90;;;;;;5070443;28;20243;-75
2022/05/29 07:46:20;;;;;;;8.88;3.30;;;16.50;99.90;;;;;;5051355;28;20267;-75
2022/05/29 07:49:09;;;;;;;7.32;3.33;;;18.00;99.90;;;;;;5045882;28;20239;-78
2022/05/29 07:52:03;;;;;;;10.43;4.18;;;18.40;99.90;;;;;;5064093;28;20262;-76
2022/05/29 07:54:52;;;;;;;11.48;3.50;;;17.80;99.90;;;;;;5046276;28;20729;-76
2022/05/29 07:57:41;;;;;;;11.23;3.47;;;17.60;99.90;;;;;;5045223;28;20218;-74
2022/05/29 08:00:30;;;;;;;6.57;3.20;;;17.80;99.90;;;;;;5042934;28;20223;-76
2022/05/29 08:03:22;;;;;;;7.35;3.25;;;18.00;99.90;;;;;;5038636;28;20343;-74
2022/05/29 08:06:11;;;;;;;7.18;3.30;;;18.30;99.90;;;;;;5044134;28;20248;-73
2022/05/29 08:08:59;;;;;;;11.18;3.08;;;17.80;99.90;;;;;;5047188;28;20213;-73
2022/05/29 08:11:48;;;;;;;12.82;3.35;;;17.90;99.90;;;;;;5070633;28;20224;-72
2022/05/29 08:14:37;;;;;;;9.95;3.03;;;19.00;99.90;;;;;;5059581;28;20224;-73
2022/05/29 08:17:26;;;;;;;7.78;2.97;;;17.60;99.90;;;;;;5049261;28;20348;-73
2022/05/29 08:20:17;;;;;;;7.43;2.83;;;20.40;99.90;;;;;;5047355;28;20335;-74
2022/05/29 08:23:06;;;;;;;7.65;2.78;;;22.60;99.90;;;;;;5069831;28;20710;-74
2022/05/29 08:32:08;;;;;;;7.18;2.90;;;17.90;99.90;;;;;;5047552;28;20236;-76
2022/05/29 08:34:56;;;;;;;10.57;3.10;;;17.00;99.90;;;;;;5056160;28;20739;-76
2022/05/29 08:37:46;;;;;;;9.93;2.95;;;19.70;99.90;;;;;;5068501;28;20732;-75
2022/05/29 08:40:41;;;;;;;9.07;2.60;;;21.20;99.70;;;;;;5055084;28;20243;-74
2022/05/29 08:43:35;;;;;;;8.32;3.03;;;20.10;99.50;;;;;;5064257;28;20276;-74
2022/05/29 08:46:31;;;;;;;11.20;3.00;;;18.20;99.90;;;;;;5047639;28;20530;-73
2022/05/29 08:49:23;;;;;;;8.13;3.10;;;17.60;99.90;;;;;;5060795;28;20774;-74
2022/05/29 08:52:24;;;;;;;10.10;4.30;;;17.10;99.90;;;;;;5055974;28;20309;-72
2022/05/29 08:55:16;;;;;;;7.03;2.45;;;16.60;99.90;;;;;;5054157;28;20220;-71
2022/05/29 08:58:24;;;;;;;9.50;2.65;;;20.20;99.90;;;;;;5072712;28;20755;-71
2022/05/29 09:01:22;;;;;;;5.57;2.22;;;25.20;84.80;;;;;;5047254;28;20344;-70
2022/05/29 09:04:26;;;;;;;8.38;2.92;;;27.40;74.30;;;;;;5045374;28;20713;-71
2022/05/29 09:07:19;;;;;;;7.53;2.53;;;27.10;75.00;;;;;;5060840;28;21669;-73
2022/05/29 09:10:16;;;;;;;6.65;2.25;;;23.20;75.90;;;;;;5042090;28;20632;-71
2022/05/29 09:13:15;;;;;;;4.07;2.30;;;19.70;87.00;;;;;;5056331;28;22347;-73
2022/05/29 09:16:11;;;;;;;6.55;2.58;;;18.30;93.40;;;;;;5060495;28;20232;-73
2022/05/29 09:19:09;;;;;;;7.18;2.45;;;18.50;95.60;;;;;;5053024;28;20228;-71
2022/05/29 09:22:04;;;;;;;5.07;2.75;;;18.70;94.80;;;;;;5065604;28;20739;-72
2022/05/29 09:25:00;;;;;;;5.32;2.60;;;22.10;92.60;;;;;;5045760;28;20224;-72
2022/05/29 09:27:50;;;;;;;6.28;2.47;;;25.00;75.40;;;;;;5046175;28;20228;-73
2022/05/29 09:30:40;;;;;;;7.22;2.60;;;23.10;80.40;;;;;;5061174;28;20983;-71
2022/05/29 09:33:29;;;;;;;6.20;2.30;;;27.60;69.30;;;;;;5055491;28;20224;-71
2022/05/29 09:36:24;;;;;;;7.03;2.67;;;24.20;71.00;;;;;;5052513;28;20219;-71
2022/05/29 09:39:24;;;;;;;6.93;2.60;;;27.60;65.80;;;;;;5058352;28;20308;-71
2022/05/29 09:42:18;;;;;;;5.05;2.47;;;24.90;64.80;;;;;;5046639;28;20801;-71
2022/05/29 09:45:15;;;;;;;6.00;2.45;;;24.80;70.70;;;;;;5059703;28;20235;-71
2022/05/29 09:51:36;;;;;;;6.13;2.40;;;21.20;78.50;;;;;;5075137;28;20293;-72
2022/05/29 09:54:29;;;;;;;4.13;2.40;;;20.50;80.80;;;;;;5055435;28;20224;-72
2022/05/29 09:57:23;;;;;;;5.97;2.40;;;20.00;82.00;;;;;;5044876;28;20224;-71
2022/05/29 10:00:26;;;;;;;6.47;2.58;;;19.20;87.40;;;;;;5065746;28;20634;-72
2022/05/29 10:03:38;;;;;;;6.20;2.25;;;19.10;90.20;;;;;;5066532;28;20607;-71
2022/05/29 10:06:30;;;;;;;8.50;2.30;;;19.00;86.50;;;;;;5068950;28;20242;-71
2022/05/29 10:09:21;;;;;;;7.03;2.47;;;18.70;86.70;;;;;;5054791;28;20379;-72
2022/05/29 10:12:19;;;;;;;7.10;2.50;;;18.90;90.00;;;;;;5064627;28;20238;-70
2022/05/29 10:15:16;;;;;;;8.40;2.35;;;19.00;88.70;;;;;;5071637;28;20220;-71
2022/05/29 10:18:30;;;;;;;6.03;2.70;;;18.50;88.60;;;;;;5046357;28;20216;-72
2022/05/29 10:21:24;;;;;;;5.63;2.50;;;18.50;90.60;;;;;;5054813;28;20224;-71
2022/05/29 10:24:21;;;;;;;5.45;2.17;;;18.80;91.50;;;;;;5041628;28;20677;-71
2022/05/29 10:27:25;;;;;;;8.80;3.00;;;18.40;91.10;;;;;;5052094;28;20750;-71
2022/05/29 10:30:30;;;;;;;6.47;2.70;;;18.80;91.90;;;;;;5055206;28;20224;-71
2022/05/29 10:33:24;;;;;;;7.03;2.50;;;19.50;91.20;;;;;;5067120;28;20211;-72
2022/05/29 10:36:16;;;;;;;5.68;2.58;;;21.00;88.90;;;;;;5064150;28;20312;-73
2022/05/29 10:39:09;;;;;;;6.20;2.75;;;22.00;81.50;;;;;;5055040;28;20737;-73
2022/05/29 10:41:59;;;;;;;8.50;2.50;;;21.20;83.10;;;;;;5037612;28;20232;-72
2022/05/29 10:44:49;;;;;;;7.03;2.70;;;22.60;80.90;;;;;;5063664;28;20216;-73
2022/05/29 10:47:48;;;;;;;5.78;3.17;;;22.10;85.60;;;;;;5070780;28;20322;-72
2022/05/29 10:51:07;;;;;;;6.97;2.60;;;23.60;77.90;;;;;;5067036;28;20236;-72
2022/05/29 10:54:10;;;;;;;8.70;2.70;;;22.60;80.20;;;;;;5064466;28;20385;-72
2022/05/29 10:57:20;;;;;;;3.28;2.00;;;21.70;81.10;;;;;;5066118;28;20220;-72
2022/05/29 11:00:26;;;;;;;4.57;2.80;;;20.80;82.30;;;;;;5051248;28;20227;-73
2022/05/29 11:03:42;;;;;;;6.68;2.15;;;20.50;80.10;;;;;;5064150;28;20226;-72
2022/05/29 11:06:51;;;;;;;3.78;2.00;;;20.20;84.20;;;;;;5047775;28;20228;-72
2022/05/29 11:09:55;;;;;;;8.20;2.63;;;20.20;86.00;;;;;;5039741;28;20750;-73
2022/05/29 11:13:17;;;;;;;5.28;2.35;;;20.20;84.20;;;;;;5046449;28;20307;-73
2022/05/29 11:16:17;;;;;;;6.63;2.28;;;20.10;81.60;;;;;;5057836;28;21101;-71
2022/05/29 11:19:37;;;;;;;5.05;2.10;;;20.30;82.00;;;;;;5072826;28;20611;-70
2022/05/29 11:22:36;;;;;;;5.75;2.33;;;20.80;84.70;;;;;;5051728;28;20547;-72
2022/05/29 11:25:40;;;;;;;4.65;2.03;;;24.20;75.10;;;;;;5059364;28;20890;-72
2022/05/29 11:29:03;;;;;;;7.22;2.60;;;24.10;70.70;;;;;;5055913;28;20238;-72
2022/05/29 11:32:23;;;;;;;8.05;2.88;;;26.10;72.20;;;;;;5058051;28;20316;-72
2022/05/29 11:35:33;;;;;;;6.40;2.75;;;28.60;66.80;;;;;;5051308;28;20216;-73
2022/05/29 11:38:44;;;;;;;6.32;2.70;;;28.90;63.60;;;;;;5047361;28;20564;-70
2022/05/29 11:41:39;;;;;;;6.88;2.42;;;29.40;58.20;;;;;;5064679;28;20227;-71
2022/05/29 11:44:35;;;;;;;6.40;2.72;;;25.00;65.10;;;;;;5061811;28;20367;-72
2022/05/29 11:53:59;;;;;;;5.85;2.60;;;24.60;70.10;;;;;;5053235;28;20219;-72
2022/05/29 11:56:52;;;;;;;6.32;2.65;;;27.90;61.60;;;;;;5067242;28;20306;-72
2022/05/29 11:59:48;;;;;;;4.97;2.28;;;28.10;56.90;;;;;;5075612;28;20216;-72
2022/05/29 12:02:46;;;;;;;5.78;2.30;;;28.20;57.30;;;;;;5054103;28;20216;-73
2022/05/29 12:05:52;;;;;;;5.15;2.22;;;27.40;56.70;;;;;;5047648;28;20219;-73
2022/05/29 12:08:49;;;;;;;7.00;1.90;;;27.30;58.80;;;;;;5046027;28;20223;-71
2022/05/29 12:11:44;;;;;;;8.35;2.40;;;28.70;56.70;;;;;;5061256;28;20227;-72
2022/05/29 12:14:36;;;;;;;4.25;2.20;;;29.70;55.40;;;;;;5043531;28;20281;-72
2022/05/29 12:17:29;;;;;;;5.45;2.35;;;29.40;54.30;;;;;;5063961;28;20229;-72
2022/05/29 12:20:24;;;;;;;8.40;2.45;;;29.60;56.20;;;;;;5049813;28;20225;-73
2022/05/29 12:23:30;;;;;;;6.97;2.40;;;29.50;53.20;;;;;;5048883;28;20232;-73
2022/05/29 12:26:25;;;;;;;6.32;2.33;;;29.80;54.20;;;;;;5064466;28;20253;-72
2022/05/29 12:29:19;;;;;;;3.03;2.17;;;29.90;53.30;;;;;;5056907;28;20302;-73
2022/05/29 12:32:16;;;;;;;4.80;2.58;;;29.50;53.00;;;;;;5059911;28;20318;-73
2022/05/29 12:35:10;;;;;;;5.63;2.30;;;28.60;54.20;;;;;;5046880;28;20729;-74
2022/05/29 12:38:20;;;;;;;5.22;2.40;;;27.70;54.20;;;;;;5063426;28;20233;-72
2022/05/29 12:41:32;;;;;;;7.97;2.25;;;27.60;55.30;;;;;;5060312;28;20230;-70
2022/05/29 12:44:57;;;;;;;3.35;1.92;;;28.10;52.90;;;;;;5058672;28;20229;-72
2022/05/29 12:48:23;;;;;;;8.57;6.15;;;27.20;54.90;;;;;;5024863;28;20246;-71
2022/05/29 12:51:30;;;;;;;4.43;2.10;;;25.10;57.80;;;;;;5062832;28;20231;-71
2022/05/29 12:54:48;;;;;;;5.22;2.53;;;24.60;60.70;;;;;;5052121;28;20586;-73
2022/05/29 12:57:58;;;;;;;5.50;2.40;;;24.00;61.50;;;;;;5044661;28;20228;-71
2022/05/29 13:01:01;;;;;;;7.47;2.92;;;23.40;64.30;;;;;;5061569;28;20217;-73
2022/05/29 13:04:16;;;;;;;9.25;3.45;;;22.90;65.90;;;;;;5059282;28;20224;-74
2022/05/29 13:07:24;;;;;;;6.95;2.13;;;23.20;65.90;;;;;;5070726;28;20529;-72
2022/05/29 13:10:19;;;;;;;6.45;2.35;;;22.60;67.50;;;;;;5053091;28;20771;-72
2022/05/29 13:13:12;;;;;;;7.63;2.65;;;22.60;66.50;;;;;;5044809;28;20239;-71
2022/05/29 13:16:20;;;;;;;5.82;1.90;;;22.30;67.20;;;;;;5052260;28;20217;-72
2022/05/29 13:19:17;;;;;;;4.78;1.85;;;21.50;67.20;;;;;;5037615;28;20239;-73
2022/05/29 13:22:08;;;;;;;4.38;1.70;;;21.60;64.40;;;;;;5056661;28;20235;-72
2022/05/29 13:25:04;;;;;;;2.40;1.50;;;21.00;66.10;;;;;;5059721;28;20228;-72
2022/05/29 13:27:56;;;;;;;5.50;1.80;;;20.60;65.60;;;;;;5060121;28;20259;-73
2022/05/29 13:31:09;;;;;;;5.63;2.42;;;20.90;65.60;;;;;;5054079;28;20297;-72
2022/05/29 13:34:27;;;;;;;13.80;4.07;;;20.90;67.90;;;;;;5069888;28;20217;-70
2022/05/29 13:37:28;;;;;;;4.72;1.85;;;20.90;69.60;;;;;;5051805;28;20867;-71
2022/05/29 13:40:46;;;;;;;2.83;1.70;;;21.10;67.00;;;;;;5074817;28;21172;-71
2022/05/29 13:43:40;;;;;;;5.28;1.75;;;21.00;67.50;;;;;;5043497;28;20220;-71
2022/05/29 13:46:29;;;;;;;4.38;2.00;;;20.50;70.70;;;;;;5057259;28;20220;-72
2022/05/29 13:49:22;;;;;;;5.13;1.77;;;20.60;68.20;;;;;;5058409;28;20216;-71
2022/05/29 13:52:17;;;;;;;6.65;1.70;;;20.50;68.40;;;;;;5061433;28;20291;-72
2022/05/29 13:55:10;;;;;;;5.78;1.80;;;20.60;70.20;;;;;;5050939;28;20223;-71
2022/05/29 14:04:51;;;;;;;4.57;1.70;;;20.00;73.20;;;;;;5065564;28;20313;-71
2022/05/29 14:07:40;;;;;;;4.35;1.80;;;20.40;71.70;;;;;;5064688;28;20225;-71
2022/05/29 14:10:31;;;;;;;3.67;1.38;;;20.20;72.40;;;;;;5055939;28;20226;-71
2022/05/29 14:13:33;;;;;;;3.78;1.42;;;20.50;70.60;;;;;;5059374;28;20306;-71
2022/05/29 14:16:45;;;;;;;3.25;1.45;;;20.50;70.80;;;;;;5044106;28;20224;-70
2022/05/29 14:20:08;;;;;;;4.25;1.40;;;20.40;71.80;;;;;;5057299;28;20406;-71
2022/05/29 14:23:11;;;;;;;3.03;1.48;;;20.50;71.20;;;;;;5060335;28;20279;-71
2022/05/29 14:26:12;;;;;;;3.20;1.25;;;20.50;67.60;;;;;;5076144;28;20243;-72
2022/05/29 14:29:09;;;;;;;5.00;1.95;;;20.10;68.90;;;;;;5065558;28;20228;-72
2022/05/29 14:32:12;;;;;;;4.50;1.35;;;20.10;70.50;;;;;;5053664;28;20209;-72
2022/05/29 14:35:16;;;;;;;3.42;1.60;;;20.20;69.60;;;;;;5071996;28;20234;-71
2022/05/29 14:38:31;;;;;;;5.55;1.52;;;20.40;69.40;;;;;;5067639;28;20220;-72
2022/05/29 14:41:27;;;;;;;5.30;1.73;;;20.40;69.90;;;;;;5067678;28;20216;-72
2022/05/29 14:44:28;;;;;;;5.47;1.83;;;20.10;70.60;;;;;;5049834;28;20228;-72
2022/05/29 14:47:29;;;;;;;3.67;1.60;;;19.70;70.90;;;;;;5063047;28;20340;-72
2022/05/29 14:50:21;;;;;;;3.95;1.70;;;19.80;70.70;;;;;;5053349;28;20225;-72
2022/05/29 14:53:23;;;;;;;4.40;1.60;;;19.70;69.50;;;;;;5059410;28;20239;-72
2022/05/29 14:56:12;;;;;;;3.42;1.92;;;19.90;70.60;;;;;;5058694;28;20686;-73
2022/05/29 14:59:20;;;;;;;4.72;1.80;;;19.90;70.10;;;;;;5062781;28;20380;-72
2022/05/29 15:02:14;;;;;;;5.90;1.80;;;19.80;71.80;;;;;;5062834;28;20757;-72
2022/05/29 15:05:11;;;;;;;3.85;1.42;;;19.50;71.60;;;;;;5055210;28;20231;-72
2022/05/29 15:11:13;;;;;;;5.78;2.05;;;19.30;70.70;;;;;;5059014;28;20252;-73
2022/05/29 15:14:04;;;;;;;4.53;1.52;;;19.40;71.80;;;;;;5048673;28;20230;-74
2022/05/29 15:16:53;;;;;;;3.28;1.67;;;19.60;73.50;;;;;;5050026;28;20211;-71
2022/05/29 15:24:08;;;;;;;5.75;1.88;;;19.80;72.70;;;;;;5056096;28;20228;-71
2022/05/29 15:26:30;;;;;;;4.63;2.00;;;19.90;72.40;;;;;;5062894;28;20222;-71
2022/05/29 15:29:28;;;;;;;5.22;1.92;;;19.80;71.80;;;;;;5060056;28;20292;-69
2022/05/29 15:32:22;;;;;;;5.93;2.13;;;19.90;70.80;;;;;;5064179;28;20762;-72
2022/05/29 15:35:22;;;;;;;5.45;2.00;;;19.70;72.40;;;;;;5048055;28;20256;-71
2022/05/29 15:38:19;;;;;;;7.20;1.90;;;19.50;72.50;;;;;;5068695;28;20362;-71
2022/05/29 15:41:21;;;;;;;4.97;2.05;;;19.40;72.70;;;;;;5048097;28;20223;-72
2022/05/29 15:44:24;;;;;;;6.22;1.95;;;19.50;71.60;;;;;;5061558;28;20343;-73
2022/05/29 15:47:29;;;;;;;5.10;2.20;;;19.20;71.40;;;;;;5063642;28;20281;-70
2022/05/29 15:50:28;;;;;;;6.57;1.95;;;19.40;72.90;;;;;;5059026;28;20319;-73
2022/05/29 15:53:50;;;;;;;6.40;2.03;;;19.00;73.60;;;;;;5065574;28;20224;-72
2022/05/29 15:56:55;;;;;;;5.63;2.03;;;19.10;73.10;;;;;;5049030;28;20684;-72
2022/05/29 16:00:04;;;;;;;3.35;1.90;;;19.30;72.60;;;;;;5058040;28;20348;-71
2022/05/29 16:02:59;;;;;;;5.20;1.80;;;19.40;73.90;;;;;;5058416;28;20224;-71
2022/05/29 16:06:09;;;;;;;4.75;1.65;;;19.20;75.10;;;;;;5056926;28;20232;-71